Latest Weather Observations for Millendon (Swan Valley)

IDW60901

Issued at 10:41 pm WST Tuesday 28 January 2020 (issued every 10 minutes, with the page automatically refreshed every 10 minutes)

About weather observations | Map of Perth area stations | Latest observations for Perth area | Other Formats
Station Details ID: 009281 Name: MILLENDON (SWAN VALLEY) Lat: -31.81 Lon: 116.02 Height: 16.0 m
Data from the previous 72 hours. | See also: Recent months at Millendon (Swan Valley)
Date/Time
WST
Temp
°C
App
Temp
°C
Dew
Point
°C
Rel
Hum
%
Delta-T
°C
Wind Press
QNH
hPa
Press
MSL
hPa
Rain since
9am
mm
Dir  Spd
km/h
Gust
km/h
Spd
kts
Gust
kts
28/10:30pm 21.4 22.9 18.0 81 2.1 SSW 7 13 4 7 - - 0.0
28/10:00pm 21.8 22.9 18.0 79 2.4 SSW 9 17 5 9 - - 0.0
28/09:30pm 22.1 23.2 17.9 77 2.6 SSW 9 20 5 11 - - 0.0
28/09:00pm 22.7 23.5 17.4 72 3.3 SSW 9 15 5 8 - - 0.0
28/08:30pm 23.3 23.9 16.8 67 4.0 SSW 9 17 5 9 - - 0.0
28/08:00pm 23.9 24.0 16.4 63 4.6 SSW 11 22 6 12 - - 0.0
28/07:30pm 25.1 24.4 15.4 55 5.9 SW 13 20 7 11 - - 0.0
28/07:00pm 26.3 25.3 14.7 48 7.0 SW 13 24 7 13 - - 0.0
28/06:30pm 27.8 26.4 14.4 43 8.1 SW 15 22 8 12 - - 0.0
28/06:00pm 28.9 26.7 14.3 40 8.8 SW 19 28 10 15 - - 0.0
28/05:30pm 29.8 28.0 14.4 39 9.3 SW 17 28 9 15 - - 0.0
28/05:00pm 30.8 28.7 14.8 37 9.8 SW 19 28 10 15 - - 0.0
28/04:30pm 32.1 29.9 14.3 34 10.9 SW 19 30 10 16 - - 0.0
28/04:00pm 33.3 30.9 13.9 31 11.8 SW 19 28 10 15 - - 0.0
28/03:30pm 34.5 33.3 13.9 29 12.6 SW 13 22 7 12 - - 0.0
28/03:00pm 34.8 32.5 14.1 28 12.7 WSW 19 30 10 16 - - 0.0
28/02:30pm 35.0 32.4 13.2 27 13.2 SW 19 28 10 15 - - 0.0
28/02:00pm 35.7 33.5 13.2 26 13.7 WSW 17 30 9 16 - - 0.0
28/01:30pm 35.3 34.1 15.1 30 12.6 SW 15 24 8 13 - - 0.0
28/01:00pm 35.9 34.1 14.5 27 13.3 SW 17 26 9 14 - - 0.0
28/12:30pm 36.9 34.8 13.6 24 14.3 SW 17 30 9 16 - - 0.0
28/12:00pm 37.3 36.1 14.0 25 14.4 SW 13 22 7 12 - - 0.0
28/11:30am 36.4 34.9 13.2 25 14.2 SSW 13 20 7 11 - - 0.0
28/11:00am 35.1 34.8 14.4 29 12.8 SW 9 17 5 9 - - 0.0
28/10:30am 34.6 34.2 14.0 29 12.6 SW 9 17 5 9 - - 0.0
28/10:00am 32.9 33.0 14.0 32 11.5 S 6 11 3 6 - - 0.0
28/09:30am 31.6 31.8 14.3 35 10.5 WSW 6 7 3 4 - - 0.0
28/09:00am 30.2 30.8 14.3 38 9.6 SW 4 6 2 3 - - 0.0
28/08:30am 29.1 30.4 15.2 42 8.5 SW 2 6 1 3 - - 0.0
28/08:00am 28.0 28.9 15.0 45 7.9 S 4 6 2 3 - - 0.0
28/07:30am 26.6 27.0 14.7 48 7.2 S 6 7 3 4 - - 0.0
28/07:00am 24.8 25.6 14.9 54 5.9 S 4 6 2 3 - - 0.0
28/06:30am 23.0 24.0 14.3 58 5.1 SSE 2 4 1 2 - - 0.0
28/06:00am 22.8 23.6 13.6 56 5.4 SSE 2 6 1 3 - - 0.0
28/05:30am 25.2 25.1 13.4 48 6.9 SSW 6 9 3 5 - - 0.0
28/05:00am 26.4 25.9 12.8 43 7.9 SE 7 15 4 8 - - 0.0
28/04:30am 26.1 26.3 12.9 44 7.7 ESE 4 9 2 5 - - 0.0
28/04:00am 26.7 26.9 13.1 43 8.0 ENE 4 7 2 4 - - 0.0
28/03:30am 27.4 27.2 13.0 41 8.4 ESE 6 13 3 7 - - 0.0
28/03:00am 26.8 26.8 13.5 44 7.9 ENE 6 11 3 6 - - 0.0
28/02:30am 27.9 28.0 13.8 42 8.4 SSE 6 19 3 10 - - 0.0
28/02:00am 23.4 23.4 13.6 54 5.7 S 6 17 3 9 - - 0.0
28/01:30am 21.3 22.0 13.5 61 4.5 NW 2 6 1 3 - - 0.0
28/01:00am 20.9 22.0 13.6 63 4.2 CALM 0 0 0 0 - - 0.0
28/12:30am 20.5 21.6 13.5 64 4.0 CALM 0 0 0 0 - - 0.0
28/12:00am 21.0 22.2 13.7 63 4.2 CALM 0 4 0 2 - - 0.0
 
Date/Time
WST
Temp
°C
App
Temp
°C
Dew
Point
°C
Rel
Hum
%
Delta-T
°C
Wind Press
QNH
hPa
Press
MSL
hPa
Rain since
9am
mm
Dir  Spd
km/h
Gust
km/h
Spd
kts
Gust
kts
27/11:30pm 21.8 22.9 13.4 59 4.8 CALM 0 0 0 0 - - 0.0
27/11:00pm 22.4 23.3 12.9 55 5.4 CALM 0 0 0 0 - - 0.0
27/10:30pm 23.4 24.3 13.0 52 6.0 CALM 0 0 0 0 - - 0.0
27/10:00pm 25.4 26.2 13.6 48 6.9 SSE 2 4 1 2 - - 0.0
27/09:30pm 25.3 26.2 12.9 46 7.2 CALM 0 0 0 0 - - 0.0
27/09:00pm 28.1 28.2 12.8 38 9.0 S 4 7 2 4 - - 0.0
27/08:30pm 29.3 29.3 12.3 35 9.9 SSW 4 6 2 3 - - 0.0
27/08:00pm 31.0 30.6 12.4 32 11.0 SSW 6 11 3 6 - - 0.0
27/07:30pm 32.5 31.9 12.2 29 12.0 SW 7 13 4 7 - - 0.0
27/07:00pm 34.1 33.0 11.9 26 13.2 SW 9 13 5 7 - - 0.0
27/06:30pm 35.8 33.6 10.8 22 14.7 SW 13 19 7 10 - - 0.0
27/06:00pm 36.6 35.4 12.8 24 14.5 SW 11 19 6 10 - - 0.0
27/05:30pm 37.2 34.3 9.7 19 16.0 SSW 15 24 8 13 - - 0.0
27/05:00pm 38.4 35.4 10.7 19 16.4 SSW 17 28 9 15 - - 0.0
27/04:30pm 40.3 36.2 4.2 11 19.6 SW 15 24 8 13 - - 0.0
27/04:00pm 41.2 37.2 4.9 11 20.0 SW 15 22 8 12 - - 0.0
27/03:30pm 41.1 38.6 8.3 14 19.0 WSW 11 22 6 12 - - 0.0
27/03:00pm 41.0 38.3 10.2 16 18.3 SSW 15 30 8 16 - - 0.0
27/02:30pm 40.8 38.8 10.0 16 18.3 SW 11 22 6 12 - - 0.0
27/02:00pm 41.5 40.6 10.6 16 18.5 SW 6 13 3 7 - - 0.0
27/01:30pm 40.3 38.1 5.4 12 19.3 S 6 9 3 5 - - 0.0
27/01:00pm 41.3 39.8 8.5 14 19.1 WSW 6 11 3 6 - - 0.0
27/12:30pm 40.4 39.5 10.6 17 17.8 WSW 6 9 3 5 - - 0.0
27/12:00pm 38.9 38.5 11.1 19 16.6 SSE 4 9 2 5 - - 0.0
27/11:30am 38.3 38.0 11.4 20 16.1 S 4 9 2 5 - - 0.0
27/11:00am 37.0 36.4 11.8 22 15.1 ESE 6 15 3 8 - - 0.0
27/10:30am 35.7 35.0 12.0 24 14.2 ESE 7 13 4 7 - - 0.0
27/10:00am 34.0 33.4 11.8 26 13.1 SSE 6 17 3 9 - - 0.0
27/09:30am 33.2 32.6 11.7 27 12.7 ENE 6 15 3 8 - - 0.0
27/09:00am 31.2 30.1 12.1 31 11.2 ESE 9 20 5 11 - - 0.0
27/08:30am 29.8 29.2 11.8 33 10.5 SSW 6 9 3 5 - - 0.0
27/08:00am 27.9 27.8 13.4 40 8.6 S 6 9 3 5 - - 0.0
27/07:30am 26.2 25.9 13.3 45 7.6 SW 7 15 4 8 - - 0.0
27/07:00am 25.0 25.0 13.5 48 6.7 S 6 13 3 7 - - 0.0
27/06:30am 23.8 24.0 13.1 51 6.2 S 4 13 2 7 - - 0.0
27/06:00am 23.5 23.1 12.5 50 6.3 SSW 6 11 3 6 - - 0.0
27/05:30am 23.7 23.2 12.7 50 6.3 S 7 15 4 8 - - 0.0
27/05:00am 24.0 23.7 12.6 49 6.5 SSW 6 19 3 10 - - 0.0
27/04:30am 24.6 24.5 13.2 49 6.6 WNW 6 13 3 7 - - 0.0
27/04:00am 25.2 24.9 13.4 48 6.9 SE 7 22 4 12 - - 0.0
27/03:30am 26.0 24.6 13.5 46 7.3 ENE 13 24 7 13 - - 0.0
27/03:00am 26.6 24.9 12.6 42 8.1 E 13 26 7 14 - - 0.0
27/02:30am 27.1 25.6 13.1 42 8.2 E 13 32 7 17 - - 0.0
27/02:00am 27.4 26.2 14.1 44 7.9 ENE 13 26 7 14 - - 0.0
27/01:30am 24.9 25.8 15.2 54 5.8 SSE 4 11 2 6 - - 0.0
27/01:29am 25.4 26.3 15.1 53 6.2 SSE 4 11 2 6 - - 0.0
27/01:00am 20.0 21.0 15.4 75 2.7 NW 4 7 2 4 - - 0.0
27/12:30am 20.6 22.4 15.6 73 3.0 CALM 0 4 0 2 - - 0.0
27/12:00am 20.9 22.7 15.4 71 3.3 CALM 0 0 0 0 - - 0.0
 
Date/Time
WST
Temp
°C
App
Temp
°C
Dew
Point
°C
Rel
Hum
%
Delta-T
°C
Wind Press
QNH
hPa
Press
MSL
hPa
Rain since
9am
mm
Dir  Spd
km/h
Gust
km/h
Spd
kts
Gust
kts
26/11:30pm 21.6 23.4 15.4 68 3.7 CALM 0 0 0 0 - - 0.0
26/11:00pm 22.7 24.6 15.8 65 4.2 CALM 0 0 0 0 - - 0.0
26/10:30pm 24.3 25.9 16.0 60 5.0 S 2 4 1 2 - - 0.0
26/10:00pm 25.2 27.0 16.4 58 5.4 SSE 2 4 1 2 - - 0.0
26/09:30pm 26.5 27.4 16.1 52 6.4 SSW 6 7 3 4 - - 0.0
26/09:00pm 27.6 28.5 16.2 49 7.0 SSW 6 7 3 4 - - 0.0
26/08:30pm 28.3 29.2 16.2 47 7.5 SSW 6 9 3 5 - - 0.0
26/08:00pm 28.7 29.7 16.3 47 7.7 SSW 6 9 3 5 - - 0.0
26/07:30pm 29.6 30.4 16.4 45 8.2 SSW 7 9 4 5 - - 0.0
26/07:00pm 30.8 31.5 16.0 40 9.2 SW 7 15 4 8 - - 0.0
26/06:30pm 31.3 31.2 16.9 42 9.1 SW 13 19 7 10 - - 0.0
26/06:00pm 31.7 31.1 15.6 37 10.0 SSW 13 20 7 11 - - 0.0
26/05:30pm 32.5 31.8 16.3 37 10.2 SW 15 22 8 12 - - 0.0
26/05:00pm 32.9 31.6 15.8 35 10.7 SW 17 32 9 17 - - 0.0
26/04:30pm 32.9 31.7 17.1 39 10.1 SW 19 30 10 16 - - 0.0
26/04:00pm 34.5 33.2 16.8 34 11.3 SSW 19 28 10 15 - - 0.0
26/03:30pm 35.5 33.8 17.2 33 11.8 WSW 22 30 12 16 - - 0.0
26/03:00pm 37.3 36.2 15.2 27 13.9 SW 15 24 8 13 - - 0.0
26/02:30pm 37.4 36.2 12.8 23 15.0 SSW 11 17 6 9 - - 0.0
26/02:00pm 37.1 35.8 12.5 23 14.9 SW 11 19 6 10 - - 0.0
26/01:30pm 37.0 35.9 11.8 22 15.1 SW 9 20 5 11 - - 0.0
26/01:00pm 36.6 35.6 13.4 25 14.2 W 11 17 6 9 - - 0.0
26/12:30pm 35.5 35.5 14.2 28 13.1 SSW 7 15 4 8 - - 0.0
26/12:00pm 34.4 34.6 14.3 30 12.4 S 6 9 3 5 - - 0.0
26/11:30am 33.6 34.5 14.1 30 11.9 SE 2 7 1 4 - - 0.0
26/11:00am 32.2 32.8 14.3 33 10.9 S 4 9 2 5 - - 0.0
26/10:30am 30.6 31.2 14.3 37 9.9 SSE 4 7 2 4 - - 0.0
26/10:00am 29.5 30.0 14.9 41 8.9 SSE 6 9 3 5 - - 0.0
26/09:30am 28.8 29.4 14.2 40 8.8 E 4 9 2 5 - - 0.0
26/09:00am 27.6 28.1 14.9 45 7.7 ESE 6 15 3 8 - - 0.0
26/08:30am 26.3 26.1 14.7 48 7.0 ESE 9 17 5 9 - - 0.0
26/08:00am 24.4 24.5 14.5 54 5.9 ESE 7 13 4 7 - - 0.0
26/07:30am 23.4 23.1 14.4 57 5.3 ESE 9 26 5 14 - - 0.0
26/07:00am 22.2 21.5 14.3 61 4.6 ESE 11 20 6 11 - - 0.0
26/06:30am 21.5 21.5 14.2 63 4.3 ESE 7 19 4 10 - - 0.0
26/06:00am 21.3 20.9 14.2 64 4.1 E 9 22 5 12 - - 0.0
26/05:30am 21.4 22.0 14.3 64 4.1 ESE 4 9 2 5 - - 0.0
26/05:00am 22.0 22.1 14.4 62 4.5 ESE 7 17 4 9 - - 0.0
26/04:30am 22.2 23.3 14.6 62 4.5 E 2 22 1 12 - - 0.0
26/04:00am 21.5 22.1 15.3 68 3.7 ESE 6 9 3 5 - - 0.0
26/03:30am 18.6 20.6 16.0 85 1.5 CALM 0 4 0 2 - - 0.0
26/03:00am 17.4 19.4 15.9 91 0.9 CALM 0 0 0 0 - - 0.0
26/02:30am 16.9 18.2 15.1 89 1.0 W 2 6 1 3 - - 0.0
26/02:00am 17.1 18.7 14.9 87 1.3 CALM 0 0 0 0 - - 0.0
26/01:30am 17.9 19.7 15.5 86 1.4 CALM 0 0 0 0 - - 0.0
26/01:00am 18.5 20.5 16.1 86 1.4 CALM 0 0 0 0 - - 0.0
26/12:30am 18.7 20.7 16.1 85 1.5 CALM 0 0 0 0 - - 0.0
26/12:00am 19.0 21.1 16.2 84 1.7 CALM 0 0 0 0 - - 0.0
 
Date/Time
WST
Temp
°C
App
Temp
°C
Dew
Point
°C
Rel
Hum
%
Delta-T
°C
Wind Press
QNH
hPa
Press
MSL
hPa
Rain since
9am
mm
Dir  Spd
km/h
Gust
km/h
Spd
kts
Gust
kts
25/11:30pm 19.1 21.2 16.3 84 1.7 CALM 0 0 0 0 - - 0.0
25/11:00pm 19.6 21.6 16.1 80 2.1 CALM 0 0 0 0 - - 0.0

Latest Capital City Observations: Canberra | Sydney | Melbourne | Brisbane | Adelaide | Perth | Hobart | Darwin

Other formats

Comma delimited format used in spreadsheet applications
http://www.bom.gov.au/fwo/IDW60901/IDW60901.94795.axf

JavaScript Object Notation format (JSON) in row-major order
http://www.bom.gov.au/fwo/IDW60901/IDW60901.94795.json

Data quality

Most of these data are generated automatically and are frequently updated. Quality checks on data are not normally performed. It is possible for incorrect values to appear. Refer to information at About Latest Weather Observations and please check the disclaimer before using these data.